Godman Army Air Field
KFTK : now visible

Airfield :











YOU CAN JOIN US ON...

 
LOGIN :

Register | Disclaimer

   EN    FR    IT 

 









Legend :    VFR   Marginal VFR   IFR   Intensive IFR   Very Intensive IFR
Visi :
Ceiling :
>= 8 km
>= 3000ft
5 to 8 km
1000 to 3000 ft
1500m to 5 km
500 to 1000 ft
800 to 1500m
200 to 500 ft
< 800m
< 200 ft
Symbols :   Thunderstorms  Fog  Heavy snow  Heavy precipitations  Wind > 20 kt







- Airport Elevation : 756 ft


KFTK - Godman Army Air Field

CURRENT METAR :
  • 211756Z VRB03KT 10SM CLR 17/08 A3012 RMK SLPNO AO2A WND DATA ESTMD ALSTG ESTMD

EXPIRED METARs :
  • 211656Z VRB03KT 10SM CLR 12/07 A3011 RMK SLPNO AO2A WND DATA ESTMD ALSTG ESTMD
  • 211556Z VRB03KT 10SM CLR 12/07 A3010 RMK SLPNO AO2A WND DATA ESTMD ALSTG ESTMD

TAF TAF KFTK
Valid from the 21 at 17:00 until the 22 at 23:00 UTC


211700Z 2117/2223 13006KT 9999 SKC QNH3008INS
BECMG 2215/2216 16006KT 9999 FEW150 QNH3009INS TX21/2217Z TN08/2208Z
KZID FIR / North America



MET'MAP, your aeronautical weather chart ! - Copyright ORBIFLY December 2007 - Disclaimer

ORBIFLY MET'MAP TEAM :

Programming & Development : Alexandra Zaïnal
Concept & Development : Baudouin d'Aumeries
Co-Development & Prog : Marc-Olivier Méhu
Technical & hardware support : Manuel Goepfert

Contact : metmap@orbifly.com




SOURCES & CREDITS :

   NOAA       Earth
Advisory